createdAt,value
2022-11-05T00:01:25.902Z,928.8
2022-11-05T00:03:09.622Z,927.7
2022-11-05T00:04:53.280Z,923.5
2022-11-05T00:06:36.970Z,918.3
2022-11-05T00:08:20.710Z,913.1
2022-11-05T00:10:04.382Z,909.5
2022-11-05T00:11:48.114Z,908.1
2022-11-05T00:13:31.790Z,907
2022-11-05T00:15:15.530Z,907.4
2022-11-05T00:16:59.218Z,905.1
2022-11-05T00:18:42.879Z,905.1
2022-11-05T00:20:26.612Z,904
2022-11-05T00:22:10.293Z,901.4
2022-11-05T00:23:53.980Z,900.1
2022-11-05T00:25:37.691Z,898.4
2022-11-05T00:27:21.427Z,891.1
2022-11-05T00:29:05.097Z,886.6
2022-11-05T00:30:48.793Z,883.6
2022-11-05T00:32:32.500Z,881.9
2022-11-05T00:34:16.251Z,878.8
2022-11-05T00:35:59.912Z,876.1
2022-11-05T00:37:43.606Z,874.4
2022-11-05T00:39:27.314Z,876
2022-11-05T00:41:11.039Z,875.9
2022-11-05T00:42:54.741Z,873.2
2022-11-05T00:44:38.414Z,870.2
2022-11-05T00:46:22.132Z,868.9
2022-11-05T00:48:05.839Z,867.6
2022-11-05T00:49:49.529Z,865.2
2022-11-05T00:51:33.247Z,859.1
2022-11-05T00:53:16.976Z,856.8
2022-11-05T00:55:00.679Z,856.6
2022-11-05T00:56:44.362Z,856.5
2022-11-05T00:58:28.104Z,853.9
2022-11-05T01:00:11.825Z,850.6
2022-11-05T01:01:55.458Z,847
2022-11-05T01:03:39.172Z,843.1
2022-11-05T01:05:22.862Z,839.2
2022-11-05T01:07:06.588Z,839.4
2022-11-05T01:08:50.260Z,835.1
2022-11-05T01:10:33.974Z,831.2
2022-11-05T01:12:17.682Z,831
2022-11-05T01:14:01.369Z,829
2022-11-05T01:15:45.074Z,823.6
2022-11-05T01:17:28.794Z,819.6
2022-11-05T01:19:12.474Z,818.2
2022-11-05T01:20:56.192Z,814.7
2022-11-05T01:22:39.893Z,813.2
2022-11-05T01:24:23.596Z,812.1
2022-11-05T01:26:07.297Z,810
2022-11-05T01:27:51.001Z,812.2
2022-11-05T01:29:34.707Z,813.4
2022-11-05T01:31:18.444Z,808.4
2022-11-05T01:33:02.117Z,802.9
2022-11-05T01:34:45.842Z,799.7
2022-11-05T01:36:29.506Z,793.2
2022-11-05T01:38:13.206Z,789.6
2022-11-05T01:39:56.920Z,787.1
2022-11-05T01:41:40.625Z,785
2022-11-05T01:43:24.331Z,786.5
2022-11-05T01:45:08.024Z,784.9
2022-11-05T01:46:51.742Z,784.2
2022-11-05T01:48:35.437Z,779.7
2022-11-05T01:50:19.138Z,775.6
2022-11-05T01:52:02.825Z,774.5
2022-11-05T01:53:46.533Z,772.6
2022-11-05T01:55:30.243Z,770
2022-11-05T01:57:13.920Z,768.6
2022-11-05T01:58:57.634Z,768.1
2022-11-05T02:00:41.349Z,769.9
2022-11-05T02:02:25.035Z,769.3
2022-11-05T02:04:08.790Z,769.4
2022-11-05T02:05:52.440Z,767.9
2022-11-05T02:07:36.139Z,766.4
2022-11-05T02:09:19.850Z,764.2
2022-11-05T02:11:03.529Z,761.9
2022-11-05T02:12:47.237Z,761.2
2022-11-05T02:14:30.946Z,759.2
2022-11-05T02:16:14.655Z,757.6
2022-11-05T02:17:58.335Z,755.8
2022-11-05T02:19:42.056Z,756.5
2022-11-05T02:23:09.471Z,759.3
2022-11-05T02:24:53.157Z,755.8
2022-11-05T02:26:36.886Z,751.3
2022-11-05T02:28:20.572Z,749.1
2022-11-05T02:30:04.262Z,751
2022-11-05T02:31:48.045Z,751.4
2022-11-05T02:33:31.748Z,749.8
2022-11-05T02:35:15.393Z,746.6
2022-11-05T02:36:59.119Z,741.5
2022-11-05T02:38:42.800Z,740
2022-11-05T02:42:10.196Z,733.2
2022-11-05T02:43:53.890Z,732.7
2022-11-05T02:45:37.589Z,736
2022-11-05T02:47:21.287Z,734
2022-11-05T02:49:04.989Z,729.8
2022-11-05T02:50:48.688Z,728.3
2022-11-05T02:54:16.090Z,726.7
2022-11-05T02:55:59.824Z,720.5
2022-11-05T02:57:43.533Z,717.9
2022-11-05T02:59:27.237Z,715.5
2022-11-05T03:01:10.957Z,713.9
2022-11-05T03:02:54.614Z,710.5
2022-11-05T03:04:38.314Z,709.3
2022-11-05T03:06:22.025Z,710.8
2022-11-05T03:08:05.721Z,712.9
2022-11-05T03:09:49.436Z,713.1
2022-11-05T03:11:33.134Z,711.3
2022-11-05T03:13:16.827Z,709.9
2022-11-05T03:15:00.538Z,707.1
2022-11-05T03:16:44.230Z,704
2022-11-05T03:18:27.915Z,703.8
2022-11-05T03:20:11.627Z,703
2022-11-05T03:21:55.340Z,704
2022-11-05T03:23:39.039Z,701
2022-11-05T03:25:22.732Z,700.9
2022-11-05T03:27:06.430Z,700
2022-11-05T03:28:50.149Z,695.8
2022-11-05T03:30:33.825Z,691.8
2022-11-05T03:32:17.557Z,690.6
2022-11-05T03:34:01.237Z,688.9
2022-11-05T03:35:44.951Z,687.3
2022-11-05T03:37:28.635Z,685.2
2022-11-05T03:39:12.337Z,682.2
2022-11-05T03:40:56.043Z,678.4
2022-11-05T03:42:39.750Z,678.3
2022-11-05T03:44:23.448Z,677
2022-11-05T03:46:07.145Z,677.6
2022-11-05T03:47:50.852Z,676.9
2022-11-05T03:49:34.559Z,672.8
2022-11-05T03:51:18.280Z,672.1
2022-11-05T03:53:02.003Z,669.4
2022-11-05T03:54:45.659Z,670
2022-11-05T03:56:29.419Z,673.5
2022-11-05T03:58:13.092Z,676.7
2022-11-05T03:59:56.777Z,672.5
2022-11-05T04:01:40.492Z,671.6
2022-11-05T04:03:24.192Z,670.4
2022-11-05T04:05:07.897Z,666.6
2022-11-05T04:06:51.591Z,663.9
2022-11-05T04:08:35.293Z,662.9
2022-11-05T04:10:18.990Z,660.3
2022-11-05T04:12:02.689Z,656.3
2022-11-05T04:13:46.397Z,653.9
2022-11-05T04:15:30.095Z,653.2
2022-11-05T04:17:13.794Z,653.8
2022-11-05T04:18:57.495Z,655.1
2022-11-05T04:20:41.201Z,655.3
2022-11-05T04:22:24.925Z,652.2
2022-11-05T04:24:08.601Z,648.7
2022-11-05T04:25:52.339Z,647.9
2022-11-05T04:27:35.990Z,645.4
2022-11-05T04:29:19.710Z,643
2022-11-05T04:31:03.417Z,644.3
2022-11-05T04:32:47.112Z,644
2022-11-05T04:34:30.817Z,643
2022-11-05T04:36:14.514Z,641.8
2022-11-05T04:37:58.219Z,638.6
2022-11-05T04:39:41.912Z,639.8
2022-11-05T04:41:25.612Z,642.7
2022-11-05T04:43:09.332Z,643.2
2022-11-05T04:44:53.052Z,641.6
2022-11-05T04:46:36.737Z,636.4
2022-11-05T04:48:20.419Z,634.7
2022-11-05T04:50:04.129Z,633
2022-11-05T04:51:47.835Z,632.9
2022-11-05T04:53:31.546Z,628.9
2022-11-05T04:55:15.226Z,630.2
2022-11-05T04:56:58.952Z,632.7
2022-11-05T04:58:42.621Z,632.7
2022-11-05T05:00:26.341Z,631.2
2022-11-05T05:02:10.070Z,631.5
2022-11-05T05:03:53.756Z,627.2
2022-11-05T05:05:37.460Z,626.1
2022-11-05T05:07:21.138Z,623.8
2022-11-05T05:09:04.839Z,618.6
2022-11-05T05:10:48.532Z,619.8
2022-11-05T05:12:32.267Z,623.4
2022-11-05T05:14:16.004Z,621.9
2022-11-05T05:15:59.624Z,620.9
2022-11-05T05:17:43.355Z,619.5
2022-11-05T05:19:27.051Z,617
2022-11-05T05:21:10.763Z,614.7
2022-11-05T05:22:54.455Z,615.1
2022-11-05T05:24:38.141Z,614.4
2022-11-05T05:26:21.870Z,613.6
2022-11-05T05:28:05.598Z,615.4
2022-11-05T05:29:49.403Z,613.5
2022-11-05T05:31:32.968Z,611
2022-11-05T05:33:16.688Z,610.4
2022-11-05T05:35:00.376Z,610.1
2022-11-05T05:36:44.079Z,607.5
2022-11-05T05:38:27.818Z,605
2022-11-05T05:40:11.474Z,604.2
2022-11-05T05:41:55.195Z,604.1
2022-11-05T05:43:38.908Z,605.9
2022-11-05T05:45:22.592Z,607.5
2022-11-05T05:47:06.319Z,608.6
2022-11-05T05:48:50.001Z,608
2022-11-05T05:50:33.728Z,604.4
2022-11-05T05:52:17.404Z,603.9
2022-11-05T05:54:01.119Z,601.8
2022-11-05T05:55:44.821Z,602.3
2022-11-05T05:57:28.510Z,603.5
2022-11-05T05:59:12.225Z,600.9
2022-11-05T06:00:55.930Z,601.2
2022-11-05T06:02:39.631Z,604.2
2022-11-05T06:04:23.373Z,605.2
2022-11-05T06:06:07.059Z,603.5
2022-11-05T06:07:50.735Z,601.5
2022-11-05T06:09:34.431Z,600.7
2022-11-05T06:11:18.256Z,603
2022-11-05T06:13:01.910Z,602.3
2022-11-05T06:14:45.604Z,602.6
2022-11-05T06:16:29.355Z,603
2022-11-05T06:18:12.976Z,604.4
2022-11-05T06:19:56.680Z,604.6
2022-11-05T06:21:40.423Z,602.5
2022-11-05T06:23:24.099Z,602
2022-11-05T06:25:07.756Z,603.6
2022-11-05T06:26:51.485Z,602.8
2022-11-05T06:28:35.184Z,602.1
2022-11-05T06:30:18.870Z,602.8
2022-11-05T06:32:02.611Z,602.2
2022-11-05T06:33:46.396Z,601.5
2022-11-05T06:35:30.008Z,599.9
2022-11-05T06:37:13.693Z,599.4
2022-11-05T06:38:57.357Z,597.8
2022-11-05T06:40:41.072Z,598.4
2022-11-05T06:42:24.776Z,599
2022-11-05T06:44:08.483Z,600.3
2022-11-05T06:45:52.173Z,600.1
2022-11-05T06:47:35.910Z,599.2
2022-11-05T06:49:19.595Z,600.4
2022-11-05T06:51:03.296Z,602.4
2022-11-05T06:52:47.004Z,600.4
2022-11-05T06:54:30.692Z,596.7
2022-11-05T06:56:14.403Z,593.4
2022-11-05T06:57:58.096Z,589.9
2022-11-05T06:59:41.811Z,585.4
2022-11-05T07:01:25.503Z,581.7
2022-11-05T07:03:09.205Z,579.7
2022-11-05T07:04:52.913Z,580
2022-11-05T07:06:36.615Z,576.9
2022-11-05T07:08:20.333Z,577.7
2022-11-05T07:10:04.041Z,577.7
2022-11-05T07:11:47.736Z,577.4
2022-11-05T07:13:31.449Z,577.6
2022-11-05T07:15:15.109Z,577.6
2022-11-05T07:16:58.899Z,576.4
2022-11-05T07:18:42.548Z,575.8
2022-11-05T07:20:26.236Z,577.6
2022-11-05T07:22:09.928Z,578.1
2022-11-05T07:23:53.657Z,579.6
2022-11-05T07:25:37.331Z,580.6
2022-11-05T07:27:21.054Z,578.5
2022-11-05T07:29:04.737Z,578.4
2022-11-05T07:30:48.452Z,577
2022-11-05T07:32:32.136Z,579.4
2022-11-05T07:34:15.887Z,582.6
2022-11-05T07:35:59.555Z,583.4
2022-11-05T07:37:43.285Z,585.6
2022-11-05T07:39:26.983Z,585.6
2022-11-05T07:41:10.678Z,586.5
2022-11-05T07:42:54.396Z,588
2022-11-05T07:44:38.078Z,589.6
2022-11-05T07:46:21.772Z,589.3
2022-11-05T07:48:05.485Z,587.7
2022-11-05T07:49:49.191Z,585.6
2022-11-05T07:51:32.906Z,586
2022-11-05T07:53:16.655Z,583.3
2022-11-05T07:55:00.298Z,583.1
2022-11-05T07:56:43.986Z,581.8
2022-11-05T07:58:27.674Z,580.7
2022-11-05T08:00:11.443Z,579.9
2022-11-05T08:01:55.117Z,579.5
2022-11-05T08:03:38.817Z,578.9
2022-11-05T08:05:22.495Z,581.7
2022-11-05T08:07:06.202Z,582.8
2022-11-05T08:08:49.914Z,582.7
2022-11-05T08:10:33.645Z,580.8
2022-11-05T08:12:17.280Z,579.6
2022-11-05T08:14:01.027Z,578.1
2022-11-05T08:15:44.698Z,577.5
2022-11-05T08:17:28.404Z,578.7
2022-11-05T08:19:12.131Z,577.7
2022-11-05T08:20:55.892Z,576.7
2022-11-05T08:22:39.495Z,574.6
2022-11-05T08:24:23.198Z,573.4
2022-11-05T08:26:06.915Z,570.9
2022-11-05T08:27:50.652Z,568.2
2022-11-05T08:29:34.296Z,567.3
2022-11-05T08:31:18.012Z,567.8
2022-11-05T08:33:01.711Z,570.4
2022-11-05T08:34:45.404Z,572
2022-11-05T08:36:29.209Z,573.1
2022-11-05T08:38:12.840Z,574.7
2022-11-05T08:39:56.526Z,575.7
2022-11-05T08:41:40.251Z,575.7
2022-11-05T08:43:23.970Z,575.9
2022-11-05T08:45:07.626Z,576.8
2022-11-05T08:46:51.369Z,577.6
2022-11-05T08:48:35.039Z,582.1
2022-11-05T08:50:18.740Z,584.2
2022-11-05T08:52:02.432Z,585.6
2022-11-05T08:53:46.148Z,588.8
2022-11-05T08:55:29.831Z,597.7
2022-11-05T08:57:13.521Z,602.5
2022-11-05T08:58:57.485Z,609.3
2022-11-05T09:00:40.935Z,612.3
2022-11-05T09:02:24.639Z,615.3
2022-11-05T09:04:08.398Z,616.2
2022-11-05T09:05:52.127Z,616.4
2022-11-05T09:07:35.727Z,619.3
2022-11-05T09:09:19.426Z,622
2022-11-05T09:11:03.203Z,625.3
2022-11-05T09:12:46.875Z,625.4
2022-11-05T09:14:30.534Z,630.3
2022-11-05T09:16:14.279Z,632.4
2022-11-05T09:17:57.969Z,649.2
2022-11-05T09:19:41.653Z,715.4
2022-11-05T09:21:25.375Z,714.1
2022-11-05T09:23:09.048Z,729.8
2022-11-05T09:24:52.789Z,747
2022-11-05T09:26:36.543Z,754.9
2022-11-05T09:30:03.847Z,772.1
2022-11-05T09:31:47.541Z,786.7
2022-11-05T09:33:31.253Z,808.9
2022-11-05T09:35:14.996Z,824.3
2022-11-05T09:36:58.729Z,828.8
2022-11-05T09:38:42.363Z,832.9
2022-11-05T09:40:26.070Z,835.7
2022-11-05T09:42:09.766Z,842.4
2022-11-05T09:43:53.467Z,844.9
2022-11-05T09:45:37.194Z,845.1
2022-11-05T09:47:20.869Z,853.7
2022-11-05T09:49:04.654Z,862.6
2022-11-05T09:50:48.267Z,871
2022-11-05T09:52:31.974Z,876.6
2022-11-05T09:54:15.687Z,873.8
2022-11-05T09:55:59.362Z,825.7
2022-11-05T09:57:43.102Z,792.3
2022-11-05T09:59:26.773Z,786.3
2022-11-05T10:01:10.486Z,784.8
2022-11-05T10:02:54.166Z,789.1
2022-11-05T10:04:37.929Z,790.5
2022-11-05T10:06:21.573Z,792.5
2022-11-05T10:08:05.286Z,794.6
2022-11-05T10:09:48.969Z,793.5
2022-11-05T10:11:32.705Z,794.2
2022-11-05T10:13:16.401Z,796.9
2022-11-05T10:15:00.101Z,796.5
2022-11-05T10:16:43.794Z,794.7
2022-11-05T10:18:27.517Z,793.7
2022-11-05T10:20:11.212Z,794
2022-11-05T10:21:54.910Z,798
2022-11-05T10:23:38.651Z,799.3
2022-11-05T10:25:22.400Z,800.8
2022-11-05T10:27:06.122Z,802.7
2022-11-05T10:28:49.728Z,804.2
2022-11-05T10:30:33.450Z,801.7
2022-11-05T10:32:17.112Z,796.5
2022-11-05T10:34:00.844Z,796.6
2022-11-05T10:35:44.543Z,796.1
2022-11-05T10:37:28.283Z,795.6
2022-11-05T10:39:11.942Z,800.4
2022-11-05T10:40:55.661Z,800
2022-11-05T10:42:39.346Z,800.5
2022-11-05T10:44:23.071Z,798.4
2022-11-05T10:46:06.759Z,796.6
2022-11-05T10:47:50.465Z,798.3
2022-11-05T10:49:34.196Z,797.8
2022-11-05T10:51:17.957Z,798.6
2022-11-05T10:53:01.582Z,797.4
2022-11-05T10:54:45.284Z,796.6
2022-11-05T10:56:28.962Z,796.7
2022-11-05T10:58:12.687Z,797.9
2022-11-05T10:59:56.374Z,794.9
2022-11-05T11:01:40.097Z,793.7
2022-11-05T11:03:23.763Z,794.5
2022-11-05T11:05:07.474Z,795.1
2022-11-05T11:06:51.177Z,792.9
2022-11-05T11:08:34.874Z,789.7
2022-11-05T11:10:18.555Z,786
2022-11-05T11:12:02.288Z,785.8
2022-11-05T11:13:45.989Z,785.9
2022-11-05T11:15:29.710Z,785.1
2022-11-05T11:17:13.366Z,780.5
2022-11-05T11:18:57.089Z,775
2022-11-05T11:20:40.850Z,774.9
2022-11-05T11:22:24.489Z,772.9
2022-11-05T11:24:08.238Z,771.5
2022-11-05T11:25:51.872Z,770.3
2022-11-05T11:27:35.582Z,771.2
2022-11-05T11:29:19.297Z,770.8
2022-11-05T11:31:03.051Z,768.3
2022-11-05T11:32:46.712Z,765
2022-11-05T11:34:30.391Z,770.2
2022-11-05T11:36:14.094Z,771
2022-11-05T11:37:57.773Z,768.3
2022-11-05T11:39:41.483Z,765.4
2022-11-05T11:41:25.187Z,765.4
2022-11-05T11:43:08.923Z,766.4
2022-11-05T11:44:52.627Z,768.7
2022-11-05T11:46:36.291Z,766.3
2022-11-05T11:48:20.020Z,763.9
2022-11-05T11:50:03.799Z,763.5
2022-11-05T11:51:47.396Z,765.9
2022-11-05T11:53:31.100Z,769.5
2022-11-05T11:55:14.798Z,769.8
2022-11-05T11:56:58.528Z,770.8
2022-11-05T11:58:42.221Z,774
2022-11-05T12:00:25.895Z,775.3
2022-11-05T12:02:09.584Z,775.5
2022-11-05T12:03:53.368Z,778.3
2022-11-05T12:05:37.041Z,780.1
2022-11-05T12:07:20.712Z,776.1
2022-11-05T12:09:04.392Z,777.2
2022-11-05T12:10:48.096Z,778.5
2022-11-05T12:12:31.791Z,778.9
2022-11-05T12:14:15.494Z,778.2
2022-11-05T12:15:59.197Z,779.6
2022-11-05T12:17:42.928Z,779.1
2022-11-05T12:19:26.618Z,780.6
2022-11-05T12:21:10.306Z,782.8
2022-11-05T12:22:54.029Z,780.9
2022-11-05T12:24:37.738Z,780
2022-11-05T12:26:21.416Z,778.6
2022-11-05T12:28:05.143Z,776.5
2022-11-05T12:29:48.836Z,775.8
2022-11-05T12:31:32.520Z,776.2
2022-11-05T12:33:16.232Z,780.1
2022-11-05T12:34:59.912Z,781.7
2022-11-05T12:36:43.703Z,781.9
2022-11-05T12:38:27.356Z,780.4
2022-11-05T12:40:10.999Z,779.4
2022-11-05T12:41:54.765Z,781.2
2022-11-05T12:43:38.430Z,784.4
2022-11-05T12:45:22.157Z,791.4
2022-11-05T12:47:05.813Z,795
2022-11-05T12:48:49.515Z,793.8
2022-11-05T12:50:33.237Z,790.7
2022-11-05T12:52:16.986Z,793.4
2022-11-05T12:54:00.626Z,794.8
2022-11-05T12:55:44.315Z,791.1
2022-11-05T12:57:28.036Z,791.3
2022-11-05T12:59:11.765Z,793.1
2022-11-05T13:00:55.439Z,793.7
2022-11-05T13:02:39.124Z,791.5
2022-11-05T13:04:22.868Z,791.7
2022-11-05T13:06:06.577Z,793.8
2022-11-05T13:07:50.242Z,796.2
2022-11-05T13:09:33.967Z,794.1
2022-11-05T13:11:17.691Z,789.7
2022-11-05T13:13:01.388Z,790.2
2022-11-05T13:14:45.127Z,789.5
2022-11-05T13:16:28.760Z,794.9
2022-11-05T13:18:12.480Z,800.9
2022-11-05T13:19:56.172Z,799.2
2022-11-05T13:21:39.876Z,798.5
2022-11-05T13:23:23.580Z,796.1
2022-11-05T13:25:07.274Z,795.2
2022-11-05T13:26:50.986Z,796.1
2022-11-05T13:28:34.682Z,797.3
2022-11-05T13:30:18.378Z,803.1
2022-11-05T13:32:02.086Z,807.9
2022-11-05T13:33:45.814Z,812.3
2022-11-05T13:35:29.503Z,813
2022-11-05T13:37:13.169Z,814.9
2022-11-05T13:38:56.872Z,820.9
2022-11-05T13:40:40.576Z,821.7
2022-11-05T13:42:24.291Z,822.6
2022-11-05T13:44:07.970Z,821.7
2022-11-05T13:45:51.680Z,820.7
2022-11-05T13:47:35.396Z,822.1
2022-11-05T13:49:19.100Z,832.6
2022-11-05T13:51:02.813Z,838
2022-11-05T13:52:46.517Z,840
2022-11-05T13:54:30.240Z,836.6
2022-11-05T13:56:13.917Z,837.5
2022-11-05T13:57:57.647Z,841.5
2022-11-05T13:59:41.274Z,850.4
2022-11-05T14:01:24.984Z,858.8
2022-11-05T14:03:08.698Z,862.7
2022-11-05T14:04:52.447Z,867.3
2022-11-05T14:06:36.082Z,871.2
2022-11-05T14:08:19.786Z,895.8
2022-11-05T14:10:03.514Z,979.8
2022-11-05T14:11:47.203Z,989.2
2022-11-05T14:13:30.887Z,962.2
2022-11-05T14:15:14.656Z,944.6
2022-11-05T14:16:58.339Z,937.8
2022-11-05T14:18:42.035Z,934.8
2022-11-05T14:20:25.697Z,934.3
2022-11-05T14:22:09.396Z,932.5
2022-11-05T14:23:53.119Z,933.5
2022-11-05T14:25:36.849Z,932.4
2022-11-05T14:27:20.491Z,933.5
2022-11-05T14:29:04.230Z,930.8
2022-11-05T14:30:47.917Z,928.4
2022-11-05T14:32:31.605Z,927.7
2022-11-05T14:34:15.306Z,927.6
2022-11-05T14:35:59.012Z,929.6
2022-11-05T14:37:42.730Z,935.4
2022-11-05T14:39:26.424Z,942.1
2022-11-05T14:41:10.152Z,944.6
2022-11-05T14:42:53.816Z,945.4
2022-11-05T14:44:37.578Z,943.2
2022-11-05T14:46:21.249Z,939.6
2022-11-05T14:48:04.904Z,934.7
2022-11-05T14:49:48.639Z,935.9
2022-11-05T14:51:32.328Z,937.5
2022-11-05T14:53:16.020Z,935.6
2022-11-05T14:54:59.732Z,933.1
2022-11-05T14:56:43.430Z,927.3
2022-11-05T14:58:27.159Z,922.3
2022-11-05T15:00:10.847Z,911.8
2022-11-05T15:01:54.556Z,903.2
2022-11-05T15:03:38.266Z,897.2
2022-11-05T15:05:21.995Z,897.7
2022-11-05T15:07:05.665Z,895.9
2022-11-05T15:08:49.354Z,893.8
2022-11-05T15:10:33.059Z,892.6
2022-11-05T15:12:16.762Z,899
2022-11-05T15:14:00.461Z,902.4
2022-11-05T15:15:44.172Z,907.6
2022-11-05T15:17:27.887Z,916.9
2022-11-05T15:19:11.595Z,928.8
2022-11-05T15:20:55.277Z,932.4
2022-11-05T15:22:39.014Z,936.3
2022-11-05T15:24:22.676Z,936.7
2022-11-05T15:26:06.422Z,936.9
2022-11-05T15:27:50.075Z,937.7
2022-11-05T15:29:33.807Z,936.4
2022-11-05T15:33:01.170Z,927.7
2022-11-05T15:34:44.916Z,929.2
2022-11-05T15:36:28.639Z,932.6
2022-11-05T15:38:12.284Z,929
2022-11-05T15:39:56.057Z,926.7
2022-11-05T15:41:39.693Z,922.5
2022-11-05T15:43:23.398Z,923.9
2022-11-05T15:45:07.109Z,928.8
2022-11-05T15:46:50.805Z,928.6
2022-11-05T15:48:34.505Z,934
2022-11-05T15:50:18.230Z,949.2
2022-11-05T15:52:01.890Z,966
2022-11-05T15:53:45.615Z,967.9
2022-11-05T15:55:29.336Z,966.4
2022-11-05T15:57:13.017Z,970.6
2022-11-05T15:58:56.711Z,970.5
2022-11-05T16:00:40.480Z,968.7
2022-11-05T16:02:24.115Z,965.9
2022-11-05T16:04:07.857Z,959.7
2022-11-05T16:05:51.549Z,956.5
2022-11-05T16:07:35.246Z,950.9
2022-11-05T16:09:18.929Z,952.5
2022-11-05T16:11:02.654Z,953.6
2022-11-05T16:12:46.325Z,949.2
2022-11-05T16:14:30.024Z,951.9
2022-11-05T16:16:13.751Z,950.9
2022-11-05T16:17:57.471Z,948.4
2022-11-05T16:19:41.160Z,947.4
2022-11-05T16:21:24.849Z,944.8
2022-11-05T16:23:08.570Z,940.6
2022-11-05T16:24:52.238Z,940.7
2022-11-05T16:26:35.943Z,939.1
2022-11-05T16:28:19.640Z,931.9
2022-11-05T16:30:03.350Z,925.6
2022-11-05T16:31:47.057Z,923.7
2022-11-05T16:33:30.750Z,921.2
2022-11-05T16:35:14.480Z,924
2022-11-05T16:38:41.888Z,928.9
2022-11-05T16:40:25.589Z,928
2022-11-05T16:42:09.321Z,935.3
2022-11-05T16:43:52.991Z,1011.8
2022-11-05T16:45:36.688Z,1034.8
2022-11-05T16:47:20.357Z,1036.6
2022-11-05T16:49:04.069Z,1040.7
2022-11-05T16:50:47.772Z,1040.4
2022-11-05T16:52:31.527Z,1038.9
2022-11-05T16:54:15.213Z,1040.8
2022-11-05T16:55:58.929Z,1049.6
2022-11-05T16:57:42.599Z,1051
2022-11-05T16:59:26.346Z,1052.6
2022-11-05T17:01:10.014Z,1056.2
2022-11-05T17:02:53.720Z,1059.4
2022-11-05T17:04:37.403Z,1066.2
2022-11-05T17:06:21.082Z,1061.9
2022-11-05T17:08:04.800Z,1060.9
2022-11-05T17:09:48.536Z,1064.2
2022-11-05T17:11:32.226Z,1072.6
2022-11-05T17:13:15.888Z,1074.6
2022-11-05T17:14:59.583Z,1078.7
2022-11-05T17:16:43.323Z,1084.3
2022-11-05T17:18:26.994Z,1087.4
2022-11-05T17:20:10.704Z,1087.7
2022-11-05T17:21:54.408Z,1090.4
2022-11-05T17:23:38.114Z,1087.8
2022-11-05T17:25:21.819Z,1086.1
2022-11-05T17:27:05.501Z,1089.2
2022-11-05T17:28:49.209Z,1087.3
2022-11-05T17:30:32.909Z,1090.6
2022-11-05T17:32:16.625Z,1096.3
2022-11-05T17:34:00.315Z,1096.3
2022-11-05T17:35:43.996Z,1097.3
2022-11-05T17:37:27.703Z,1097.5
2022-11-05T17:39:11.399Z,1100.4
2022-11-05T17:40:55.130Z,1102.1
2022-11-05T17:42:38.813Z,1104.1
2022-11-05T17:44:22.560Z,1103.1
2022-11-05T17:46:06.264Z,1100.4
2022-11-05T17:47:49.904Z,1091.3
2022-11-05T17:49:33.600Z,1094.6
2022-11-05T17:51:17.366Z,1117.1
2022-11-05T17:53:01.023Z,1129.3
2022-11-05T17:54:44.737Z,1105.3
2022-11-05T17:56:28.430Z,1103.6
2022-11-05T17:58:12.117Z,1102.9
2022-11-05T17:59:55.836Z,1100.3
2022-11-05T18:01:39.615Z,1091.5
2022-11-05T18:03:23.267Z,1083.9
2022-11-05T18:05:06.963Z,1082.4
2022-11-05T18:06:50.662Z,1077.5
2022-11-05T18:08:34.460Z,1071.5
2022-11-05T18:10:18.076Z,1067.7
2022-11-05T18:12:01.793Z,1062.8
2022-11-05T18:13:45.453Z,1060.6
2022-11-05T18:15:29.229Z,1058.8
2022-11-05T18:17:12.839Z,1056.1
2022-11-05T18:18:56.599Z,1053.1
2022-11-05T18:20:40.354Z,1049.7
2022-11-05T18:22:23.963Z,1049.6
2022-11-05T18:24:07.712Z,1046.6
2022-11-05T18:25:51.355Z,1042.9
2022-11-05T18:27:35.077Z,1038.3
2022-11-05T18:29:18.857Z,1032.8
2022-11-05T18:31:02.493Z,1028.7
2022-11-05T18:32:46.244Z,1024.4
2022-11-05T18:34:29.886Z,1025.3
2022-11-05T18:36:13.658Z,1023
2022-11-05T18:37:57.295Z,1020.5
2022-11-05T18:39:41.045Z,1014.9
2022-11-05T18:41:24.711Z,1013.4
2022-11-05T18:43:08.441Z,1012.1
2022-11-05T18:44:52.100Z,1012.3
2022-11-05T18:46:35.808Z,1015.3
2022-11-05T18:48:19.496Z,1012.3
2022-11-05T18:50:03.292Z,1008.8
2022-11-05T18:51:46.896Z,1010.5
2022-11-05T18:53:30.598Z,1010.1
2022-11-05T18:55:14.315Z,1009.2
2022-11-05T18:56:58.063Z,1006.4
2022-11-05T18:58:41.721Z,1004.6
2022-11-05T19:00:25.484Z,1003.6
2022-11-05T19:02:09.107Z,1002.4
2022-11-05T19:03:52.854Z,1002.6
2022-11-05T19:05:36.589Z,1003.9
2022-11-05T19:07:20.256Z,1003.7
2022-11-05T19:09:03.955Z,998.8
2022-11-05T19:10:47.673Z,995.3
2022-11-05T19:12:31.353Z,994.3
2022-11-05T19:14:15.011Z,992.8
2022-11-05T19:15:58.806Z,990.9
2022-11-05T19:17:42.478Z,990.2
2022-11-05T19:19:26.130Z,990.2
2022-11-05T19:21:09.807Z,993.1
2022-11-05T19:22:53.533Z,997.5
2022-11-05T19:24:37.289Z,998.1
2022-11-05T19:26:21.012Z,999.7
2022-11-05T19:28:04.718Z,1001.5
2022-11-05T19:29:48.401Z,1003.5
2022-11-05T19:31:32.075Z,1008.7
2022-11-05T19:33:15.835Z,1009.2
2022-11-05T19:34:59.462Z,1007.4
2022-11-05T19:36:43.228Z,1002.1
2022-11-05T19:38:26.877Z,1000.5
2022-11-05T19:40:10.539Z,1001
2022-11-05T19:41:54.265Z,1000.3
2022-11-05T19:43:38.006Z,996.7
2022-11-05T19:45:21.695Z,994.1
2022-11-05T19:47:05.429Z,991.6
2022-11-05T19:48:49.133Z,987.9
2022-11-05T19:50:32.826Z,986.6
2022-11-05T19:52:16.515Z,987.1
2022-11-05T19:54:00.134Z,983.6
2022-11-05T19:55:43.845Z,985.2
2022-11-05T19:57:27.584Z,987.1
2022-11-05T19:59:11.297Z,989.3
2022-11-05T20:00:54.963Z,987.8
2022-11-05T20:02:38.689Z,987.1
2022-11-05T20:04:22.398Z,989.9
2022-11-05T20:06:06.100Z,992.9
2022-11-05T20:07:49.767Z,1001.2
2022-11-05T20:09:33.538Z,1004.8
2022-11-05T20:11:17.207Z,1007.7
2022-11-05T20:13:00.905Z,1011.4
2022-11-05T20:14:44.686Z,1015.2
2022-11-05T20:16:28.296Z,1020.1
2022-11-05T20:18:12.080Z,1018
2022-11-05T20:19:55.695Z,1019.6
2022-11-05T20:21:39.391Z,1019.4
2022-11-05T20:23:23.093Z,1021.5
2022-11-05T20:25:06.826Z,1025.7
2022-11-05T20:26:50.536Z,1027.5
2022-11-05T20:28:34.231Z,1030.4
2022-11-05T20:30:17.962Z,1030.6
2022-11-05T20:32:01.674Z,1030.5
2022-11-05T20:33:45.317Z,1030.2
2022-11-05T20:35:28.992Z,1034.4
2022-11-05T20:37:12.702Z,1033.4
2022-11-05T20:38:56.410Z,1036.2
2022-11-05T20:40:40.116Z,1041.7
2022-11-05T20:42:23.865Z,1045.8
2022-11-05T20:44:07.556Z,1052.2
2022-11-05T20:45:51.232Z,1056.4
2022-11-05T20:47:34.916Z,1058.6
2022-11-05T20:49:18.685Z,1058
2022-11-05T20:51:02.368Z,1059.3
2022-11-05T20:52:46.080Z,1061.5
2022-11-05T20:54:29.794Z,1062.5
2022-11-05T20:56:13.406Z,1065.5
2022-11-05T20:57:57.134Z,1070.8
2022-11-05T20:59:40.825Z,1070.4
2022-11-05T21:01:24.516Z,1070.4
2022-11-05T21:03:08.225Z,1070.4
2022-11-05T21:04:51.971Z,1072.1
2022-11-05T21:06:35.619Z,1070.3
2022-11-05T21:08:19.345Z,1070.7
2022-11-05T21:10:03.049Z,1068
2022-11-05T21:11:46.719Z,1069
2022-11-05T21:13:30.517Z,1069
2022-11-05T21:15:14.139Z,1068
2022-11-05T21:16:57.899Z,1070.9
2022-11-05T21:18:41.570Z,1069.5
2022-11-05T21:20:25.230Z,1067.8
2022-11-05T21:22:09.018Z,1067.2
2022-11-05T21:23:52.663Z,1069.3
2022-11-05T21:25:36.325Z,1071.5
2022-11-05T21:27:20.069Z,1076.4
2022-11-05T21:29:03.746Z,1077.3
2022-11-05T21:30:47.468Z,1078.6
2022-11-05T21:32:31.189Z,1077.6
2022-11-05T21:34:14.854Z,1075.5
2022-11-05T21:35:58.645Z,1077.8
2022-11-05T21:37:42.251Z,1079.1
2022-11-05T21:39:26.034Z,1079.8
2022-11-05T21:41:09.640Z,1092.5
2022-11-05T21:42:53.420Z,1103.9
2022-11-05T21:44:37.077Z,1121
2022-11-05T21:46:20.906Z,1125.5
2022-11-05T21:48:04.469Z,1127.5
2022-11-05T21:49:48.199Z,1129.1
2022-11-05T21:51:31.891Z,1129.6
2022-11-05T21:53:15.571Z,1142.5
2022-11-05T21:54:59.295Z,1148.1
2022-11-05T21:56:42.964Z,1152.8
2022-11-05T21:58:26.698Z,1153
2022-11-05T22:00:10.452Z,1153.8
2022-11-05T22:01:54.077Z,1156
2022-11-05T22:03:37.816Z,1155
2022-11-05T22:05:21.535Z,1152.8
2022-11-05T22:07:05.189Z,1153.9
2022-11-05T22:08:48.892Z,1149.7
2022-11-05T22:10:32.588Z,1149.7
2022-11-05T22:12:16.319Z,1155.2
2022-11-05T22:14:00.016Z,1158.9
2022-11-05T22:15:43.704Z,1161.5
2022-11-05T22:17:27.399Z,1166.1
2022-11-05T22:19:11.086Z,1167.4
2022-11-05T22:20:54.885Z,1172.9
2022-11-05T22:22:38.601Z,1170.5
2022-11-05T22:24:22.208Z,1173.7